createdAt,value
2018-12-14T00:03:48.070Z,1.290283
2018-12-14T00:09:10.908Z,1.290283
2018-12-14T00:14:33.805Z,1.310425
2018-12-14T00:19:56.777Z,1.340637
2018-12-14T00:25:20.100Z,1.360779
2018-12-14T00:30:43.163Z,1.38092
2018-12-14T00:36:06.023Z,1.239929
2018-12-14T00:41:28.716Z,1.260071
2018-12-14T00:46:51.525Z,1.280212
2018-12-14T00:52:14.876Z,1.280212
2018-12-14T00:57:37.663Z,1.260071
2018-12-14T01:03:00.509Z,1.209717
2018-12-14T01:08:34.646Z,1.199646
2018-12-14T01:13:58.428Z,1.199646
2018-12-14T01:19:21.201Z,1.159363
2018-12-14T01:24:44.029Z,0.99823
2018-12-14T01:30:07.000Z,1.209717
2018-12-14T01:35:30.333Z,1.209717
2018-12-14T01:40:53.156Z,1.239929
2018-12-14T05:39:21.871Z,-0.26062
2018-12-14T05:44:56.387Z,-0.079346
2018-12-14T05:56:45.225Z,-0.190125
2018-12-14T06:02:08.311Z,-0.310974
2018-12-14T06:07:31.235Z,-0.351257
2018-12-14T06:13:08.855Z,-0.391541
2018-12-14T06:18:25.884Z,-0.492249
2018-12-14T06:23:59.667Z,-0.472107
2018-12-14T06:35:14.758Z,-0.582886
2018-12-14T06:40:37.556Z,-0.552673
2018-12-14T06:46:02.323Z,-0.603027
2018-12-14T06:51:28.274Z,-0.552673
2018-12-14T06:56:52.717Z,-0.441895
2018-12-14T07:02:15.557Z,-0.502319
2018-12-14T07:07:38.545Z,-0.532532
2018-12-14T07:13:02.821Z,-0.502319
2018-12-14T07:18:26.430Z,-0.441895
2018-12-14T07:23:49.545Z,-0.653381
2018-12-14T07:29:15.623Z,-0.592957
2018-12-14T07:34:40.425Z,-0.592957
2018-12-14T07:40:03.291Z,-0.582886
2018-12-14T07:45:25.566Z,-0.502319
2018-12-14T07:50:49.425Z,-0.562744
2018-12-14T07:56:13.939Z,-0.603027
2018-12-14T08:01:37.240Z,-0.703735
2018-12-14T08:07:00.378Z,-0.492249
2018-12-14T08:12:24.425Z,-0.522461
2018-12-14T08:17:47.253Z,-0.341187
2018-12-14T08:23:11.496Z,-0.270691
2018-12-14T08:28:34.859Z,-0.270691
2018-12-14T08:33:57.655Z,-0.230408
2018-12-14T08:39:20.421Z,-0.190125
2018-12-14T08:44:43.279Z,-0.089417
2018-12-14T08:50:06.149Z,0.041504
2018-12-14T08:55:29.118Z,0.081787
2018-12-14T09:00:52.578Z,0.192566
2018-12-14T09:06:15.380Z,0.313416
2018-12-14T09:11:38.078Z,0.333557
2018-12-14T09:17:00.866Z,0.343628
2018-12-14T09:22:35.243Z,0.62561
2018-12-14T09:28:09.911Z,0.716248
2018-12-14T09:33:42.242Z,0.887451
2018-12-14T09:39:05.565Z,0.534973
2018-12-14T09:44:28.352Z,0.454407
2018-12-14T09:49:51.096Z,0.696106
2018-12-14T09:55:13.977Z,0.957947
2018-12-14T10:00:45.702Z,1.239929
2018-12-14T10:06:17.542Z,1.390991
2018-12-14T10:11:40.457Z,1.562195
2018-12-14T10:17:04.126Z,1.642761
2018-12-14T10:22:26.880Z,1.904602
2018-12-14T10:27:51.663Z,1.793823
2018-12-14T10:33:14.467Z,1.894531
2018-12-14T10:38:37.358Z,2.176514
2018-12-14T10:44:00.113Z,2.549133
2018-12-14T10:49:22.978Z,2.589417
2018-12-14T10:54:46.465Z,2.730408
2018-12-14T11:00:09.328Z,2.861328
2018-12-14T11:05:32.126Z,2.559204
2018-12-14T11:10:54.875Z,2.267151
2018-12-14T11:16:17.683Z,2.287292
2018-12-14T11:21:40.515Z,2.589417
2018-12-14T11:27:03.390Z,2.408142
2018-12-14T11:32:26.267Z,2.327576
2018-12-14T11:37:49.089Z,2.438354
2018-12-14T11:43:13.112Z,2.468567
2018-12-14T11:48:36.121Z,2.408142
2018-12-14T11:53:59.426Z,2.357788
2018-12-14T11:59:22.795Z,2.468567
2018-12-14T12:04:45.655Z,2.428284
2018-12-14T12:10:08.443Z,2.398071
2018-12-14T12:15:31.191Z,2.448425
2018-12-14T12:20:54.013Z,2.196655
2018-12-14T12:26:16.784Z,2.327576
2018-12-14T12:31:39.566Z,2.367859
2018-12-14T12:37:02.406Z,2.317505
2018-12-14T12:42:25.219Z,2.196655
2018-12-14T12:47:48.189Z,2.50885
2018-12-14T12:53:11.195Z,2.710266
2018-12-14T12:58:35.192Z,2.468567
2018-12-14T13:03:58.001Z,2.186584
2018-12-14T13:09:20.738Z,2.367859
2018-12-14T13:14:43.565Z,2.549133
2018-12-14T13:20:06.428Z,2.498779
2018-12-14T13:25:29.309Z,2.619629
2018-12-14T13:30:52.067Z,2.810974
2018-12-14T13:36:14.799Z,2.992249
2018-12-14T13:41:37.537Z,3.042603
2018-12-14T13:47:00.530Z,2.6297
2018-12-14T13:52:24.092Z,2.428284
2018-12-14T13:57:48.351Z,2.176514
2018-12-14T14:03:12.881Z,2.13623
2018-12-14T14:08:36.687Z,2.075806
2018-12-14T14:13:59.415Z,2.085876
2018-12-14T14:19:22.420Z,1.864319
2018-12-14T14:24:45.203Z,1.723328
2018-12-14T14:30:08.755Z,1.521912
2018-12-14T14:35:42.469Z,1.441345
2018-12-14T14:41:05.731Z,1.441345
2018-12-14T14:46:28.498Z,1.461487
2018-12-14T14:52:01.216Z,1.421204
2018-12-14T14:57:24.188Z,1.390991
2018-12-14T15:02:46.947Z,1.320496
2018-12-14T15:08:09.928Z,1.340637
2018-12-14T15:13:33.846Z,1.260071
2018-12-14T15:18:56.691Z,1.179504
2018-12-14T15:24:25.694Z,1.169434
2018-12-14T15:29:48.873Z,1.12915
2018-12-14T15:35:11.576Z,1.078796
2018-12-14T15:40:34.263Z,1.098938
2018-12-14T15:45:58.080Z,1.078796
2018-12-14T15:51:21.121Z,0.988159
2018-12-14T15:56:43.999Z,0.897522
2018-12-14T16:02:06.816Z,0.87738
2018-12-14T16:07:30.066Z,0.806885
2018-12-14T16:12:53.162Z,0.806885
2018-12-14T16:18:15.900Z,0.816956
2018-12-14T16:23:48.773Z,0.776672
2018-12-14T16:29:11.617Z,0.706177
2018-12-14T16:34:34.274Z,0.736389
2018-12-14T16:39:57.040Z,0.675964
2018-12-14T16:45:26.257Z,0.665894
2018-12-14T16:50:42.444Z,0.675964
2018-12-14T16:56:05.713Z,0.635681
2018-12-14T17:01:28.522Z,0.696106
2018-12-14T17:06:51.244Z,0.635681
2018-12-14T17:12:14.156Z,0.675964
2018-12-14T17:17:37.401Z,0.635681
2018-12-14T17:23:00.541Z,0.62561
2018-12-14T17:28:23.231Z,0.61554
2018-12-14T17:33:46.683Z,0.61554
2018-12-14T17:39:10.379Z,0.595398
2018-12-14T17:44:33.352Z,0.585327
2018-12-14T17:49:56.365Z,0.555115
2018-12-14T17:55:20.061Z,0.585327
2018-12-14T18:00:42.825Z,0.585327
2018-12-14T18:06:05.447Z,0.555115
2018-12-14T18:11:28.525Z,0.555115
2018-12-14T18:16:51.379Z,0.565186
2018-12-14T18:22:14.050Z,0.514832
2018-12-14T18:27:36.744Z,0.514832
2018-12-14T18:32:59.417Z,0.484619
2018-12-14T18:38:22.113Z,0.484619
2018-12-14T18:43:44.962Z,0.444336
2018-12-14T18:49:08.444Z,0.434265
2018-12-14T18:55:51.705Z,0.404053
